sensor_id;sensor_type;location;lat;lon;timestamp;temperature;humidity
5061;DHT22;2549;52.128;21.068;2023-04-15T00:00:56;14.00;99.30
5061;DHT22;2549;52.128;21.068;2023-04-15T00:03:24;13.90;99.30
5061;DHT22;2549;52.128;21.068;2023-04-15T00:05:51;13.90;99.60
5061;DHT22;2549;52.128;21.068;2023-04-15T00:08:18;14.10;99.90
5061;DHT22;2549;52.128;21.068;2023-04-15T00:10:46;14.10;99.90
5061;DHT22;2549;52.128;21.068;2023-04-15T00:13:13;14.00;99.90
5061;DHT22;2549;52.128;21.068;2023-04-15T00:15:41;14.00;99.90
5061;DHT22;2549;52.128;21.068;2023-04-15T00:18:09;13.90;99.90
5061;DHT22;2549;52.128;21.068;2023-04-15T00:20:36;13.80;99.90
5061;DHT22;2549;52.128;21.068;2023-04-15T00:23:03;13.80;99.90
5061;DHT22;2549;52.128;21.068;2023-04-15T00:25:31;13.90;99.90
5061;DHT22;2549;52.128;21.068;2023-04-15T00:27:58;13.90;99.90
5061;DHT22;2549;52.128;21.068;2023-04-15T00:30:25;13.80;99.90
5061;DHT22;2549;52.128;21.068;2023-04-15T00:32:52;13.80;99.90
5061;DHT22;2549;52.128;21.068;2023-04-15T00:35:19;13.70;99.90
5061;DHT22;2549;52.128;21.068;2023-04-15T00:37:46;13.80;99.90
5061;DHT22;2549;52.128;21.068;2023-04-15T00:40:16;13.70;99.90
5061;DHT22;2549;52.128;21.068;2023-04-15T00:42:44;13.60;99.90
5061;DHT22;2549;52.128;21.068;2023-04-15T00:45:11;13.60;99.90
5061;DHT22;2549;52.128;21.068;2023-04-15T00:47:40;13.60;99.90
5061;DHT22;2549;52.128;21.068;2023-04-15T00:50:09;13.70;99.90
5061;DHT22;2549;52.128;21.068;2023-04-15T00:52:36;13.70;99.90
5061;DHT22;2549;52.128;21.068;2023-04-15T00:55:04;13.60;99.90
5061;DHT22;2549;52.128;21.068;2023-04-15T00:57:32;13.50;99.90
5061;DHT22;2549;52.128;21.068;2023-04-15T00:59:59;13.50;99.90
5061;DHT22;2549;52.128;21.068;2023-04-15T01:02:26;13.40;99.90
5061;DHT22;2549;52.128;21.068;2023-04-15T01:04:53;13.40;99.90
5061;DHT22;2549;52.128;21.068;2023-04-15T01:07:22;13.40;99.90
5061;DHT22;2549;52.128;21.068;2023-04-15T01:09:49;13.50;99.90
5061;DHT22;2549;52.128;21.068;2023-04-15T01:12:16;13.40;99.90
5061;DHT22;2549;52.128;21.068;2023-04-15T01:15:20;13.40;99.90
5061;DHT22;2549;52.128;21.068;2023-04-15T01:17:47;13.50;99.90
5061;DHT22;2549;52.128;21.068;2023-04-15T01:20:14;13.50;99.90
5061;DHT22;2549;52.128;21.068;2023-04-15T01:22:42;13.50;99.90
5061;DHT22;2549;52.128;21.068;2023-04-15T01:25:12;13.50;99.90
5061;DHT22;2549;52.128;21.068;2023-04-15T01:27:43;13.40;99.90
5061;DHT22;2549;52.128;21.068;2023-04-15T01:30:10;13.40;99.90
5061;DHT22;2549;52.128;21.068;2023-04-15T01:32:37;13.40;99.90
5061;DHT22;2549;52.128;21.068;2023-04-15T01:35:04;13.40;99.90
5061;DHT22;2549;52.128;21.068;2023-04-15T01:37:32;13.40;99.90
5061;DHT22;2549;52.128;21.068;2023-04-15T01:39:59;13.50;99.90
5061;DHT22;2549;52.128;21.068;2023-04-15T01:42:26;13.40;99.90
5061;DHT22;2549;52.128;21.068;2023-04-15T01:44:53;13.30;99.90
5061;DHT22;2549;52.128;21.068;2023-04-15T01:47:20;13.40;99.90
5061;DHT22;2549;52.128;21.068;2023-04-15T01:49:47;13.30;99.90
5061;DHT22;2549;52.128;21.068;2023-04-15T01:52:14;13.30;99.90
5061;DHT22;2549;52.128;21.068;2023-04-15T01:54:41;13.30;99.90
5061;DHT22;2549;52.128;21.068;2023-04-15T01:57:08;13.30;99.90
5061;DHT22;2549;52.128;21.068;2023-04-15T01:59:35;13.30;99.90
5061;DHT22;2549;52.128;21.068;2023-04-15T02:02:03;13.30;99.90
5061;DHT22;2549;52.128;21.068;2023-04-15T02:04:30;13.30;99.90
5061;DHT22;2549;52.128;21.068;2023-04-15T02:06:57;13.30;99.90
5061;DHT22;2549;52.128;21.068;2023-04-15T02:09:24;13.40;99.90
5061;DHT22;2549;52.128;21.068;2023-04-15T02:11:51;13.40;99.90
5061;DHT22;2549;52.128;21.068;2023-04-15T02:14:19;13.50;99.90
5061;DHT22;2549;52.128;21.068;2023-04-15T02:16:46;13.60;99.90
5061;DHT22;2549;52.128;21.068;2023-04-15T02:19:13;13.50;99.90
5061;DHT22;2549;52.128;21.068;2023-04-15T02:21:41;13.40;99.90
5061;DHT22;2549;52.128;21.068;2023-04-15T02:24:07;13.30;99.90
5061;DHT22;2549;52.128;21.068;2023-04-15T02:26:34;13.30;99.90
5061;DHT22;2549;52.128;21.068;2023-04-15T02:29:02;13.30;99.90
5061;DHT22;2549;52.128;21.068;2023-04-15T02:31:29;13.30;99.90
5061;DHT22;2549;52.128;21.068;2023-04-15T02:33:59;13.30;99.90
5061;DHT22;2549;52.128;21.068;2023-04-15T02:36:29;13.30;99.90
5061;DHT22;2549;52.128;21.068;2023-04-15T02:38:56;13.30;99.90
5061;DHT22;2549;52.128;21.068;2023-04-15T02:41:23;13.30;99.90
5061;DHT22;2549;52.128;21.068;2023-04-15T02:43:53;13.30;99.90
5061;DHT22;2549;52.128;21.068;2023-04-15T02:46:20;13.30;99.90
5061;DHT22;2549;52.128;21.068;2023-04-15T02:48:49;13.30;99.90
5061;DHT22;2549;52.128;21.068;2023-04-15T02:51:18;13.30;99.90
5061;DHT22;2549;52.128;21.068;2023-04-15T02:53:46;13.20;99.90
5061;DHT22;2549;52.128;21.068;2023-04-15T02:56:14;13.30;99.90
5061;DHT22;2549;52.128;21.068;2023-04-15T02:58:43;13.30;99.90
5061;DHT22;2549;52.128;21.068;2023-04-15T03:01:10;13.30;99.90
5061;DHT22;2549;52.128;21.068;2023-04-15T03:03:37;13.30;99.90
5061;DHT22;2549;52.128;21.068;2023-04-15T03:06:04;13.10;99.90
5061;DHT22;2549;52.128;21.068;2023-04-15T03:08:32;13.10;99.90
5061;DHT22;2549;52.128;21.068;2023-04-15T03:10:59;13.10;99.90
5061;DHT22;2549;52.128;21.068;2023-04-15T03:13:27;13.10;99.90
5061;DHT22;2549;52.128;21.068;2023-04-15T03:15:54;13.10;99.90
5061;DHT22;2549;52.128;21.068;2023-04-15T03:18:21;13.10;99.90
5061;DHT22;2549;52.128;21.068;2023-04-15T03:20:49;13.10;99.90
5061;DHT22;2549;52.128;21.068;2023-04-15T03:23:15;13.10;99.90
5061;DHT22;2549;52.128;21.068;2023-04-15T03:25:43;13.10;99.90
5061;DHT22;2549;52.128;21.068;2023-04-15T03:28:10;13.10;99.90
5061;DHT22;2549;52.128;21.068;2023-04-15T03:30:37;13.10;99.90
5061;DHT22;2549;52.128;21.068;2023-04-15T03:33:04;13.10;99.90
5061;DHT22;2549;52.128;21.068;2023-04-15T03:35:31;13.10;99.90
5061;DHT22;2549;52.128;21.068;2023-04-15T03:37:58;13.10;99.90
5061;DHT22;2549;52.128;21.068;2023-04-15T03:40:25;13.10;99.90
5061;DHT22;2549;52.128;21.068;2023-04-15T03:42:52;13.10;99.90
5061;DHT22;2549;52.128;21.068;2023-04-15T03:45:19;13.10;99.90
5061;DHT22;2549;52.128;21.068;2023-04-15T03:47:46;13.10;99.90
5061;DHT22;2549;52.128;21.068;2023-04-15T03:50:13;13.00;99.90
5061;DHT22;2549;52.128;21.068;2023-04-15T03:52:39;13.00;99.90
5061;DHT22;2549;52.128;21.068;2023-04-15T03:55:06;13.00;99.90
5061;DHT22;2549;52.128;21.068;2023-04-15T03:57:34;13.00;99.90
5061;DHT22;2549;52.128;21.068;2023-04-15T04:00:05;13.10;99.90
5061;DHT22;2549;52.128;21.068;2023-04-15T04:02:33;13.00;99.90
5061;DHT22;2549;52.128;21.068;2023-04-15T04:05:00;13.00;99.90
5061;DHT22;2549;52.128;21.068;2023-04-15T04:07:27;12.80;99.90
5061;DHT22;2549;52.128;21.068;2023-04-15T04:09:53;12.90;99.90
5061;DHT22;2549;52.128;21.068;2023-04-15T04:12:20;13.00;99.90
5061;DHT22;2549;52.128;21.068;2023-04-15T04:14:47;12.90;99.90
5061;DHT22;2549;52.128;21.068;2023-04-15T04:17:14;12.90;99.90
5061;DHT22;2549;52.128;21.068;2023-04-15T04:19:40;13.00;99.90
5061;DHT22;2549;52.128;21.068;2023-04-15T04:22:07;13.00;99.90
5061;DHT22;2549;52.128;21.068;2023-04-15T04:24:34;13.00;99.90
5061;DHT22;2549;52.128;21.068;2023-04-15T04:27:01;13.00;99.90
5061;DHT22;2549;52.128;21.068;2023-04-15T04:29:28;12.90;99.90
5061;DHT22;2549;52.128;21.068;2023-04-15T04:31:55;12.90;99.90
5061;DHT22;2549;52.128;21.068;2023-04-15T04:34:22;12.90;99.90
5061;DHT22;2549;52.128;21.068;2023-04-15T04:36:49;12.80;99.90
5061;DHT22;2549;52.128;21.068;2023-04-15T04:39:15;12.90;99.90
5061;DHT22;2549;52.128;21.068;2023-04-15T04:41:43;12.90;99.90
5061;DHT22;2549;52.128;21.068;2023-04-15T04:44:10;12.90;99.90
5061;DHT22;2549;52.128;21.068;2023-04-15T04:46:37;12.90;99.90
5061;DHT22;2549;52.128;21.068;2023-04-15T04:49:04;12.90;99.90
5061;DHT22;2549;52.128;21.068;2023-04-15T04:51:31;13.00;99.90
5061;DHT22;2549;52.128;21.068;2023-04-15T04:53:58;13.10;99.90
5061;DHT22;2549;52.128;21.068;2023-04-15T04:56:27;13.00;99.90
5061;DHT22;2549;52.128;21.068;2023-04-15T04:58:53;13.00;99.90
5061;DHT22;2549;52.128;21.068;2023-04-15T05:01:21;12.90;99.90
5061;DHT22;2549;52.128;21.068;2023-04-15T05:03:47;13.00;99.90
5061;DHT22;2549;52.128;21.068;2023-04-15T05:06:15;12.90;99.90
5061;DHT22;2549;52.128;21.068;2023-04-15T05:08:41;13.00;99.90
5061;DHT22;2549;52.128;21.068;2023-04-15T05:11:08;13.00;99.90
5061;DHT22;2549;52.128;21.068;2023-04-15T05:13:35;12.90;99.90
5061;DHT22;2549;52.128;21.068;2023-04-15T05:16:05;12.90;99.90
5061;DHT22;2549;52.128;21.068;2023-04-15T05:18:32;12.90;99.90
5061;DHT22;2549;52.128;21.068;2023-04-15T05:20:59;12.90;99.90
5061;DHT22;2549;52.128;21.068;2023-04-15T05:23:26;12.90;99.90
5061;DHT22;2549;52.128;21.068;2023-04-15T05:25:53;12.90;99.90
5061;DHT22;2549;52.128;21.068;2023-04-15T05:28:20;12.90;99.90
5061;DHT22;2549;52.128;21.068;2023-04-15T05:30:46;12.90;99.90
5061;DHT22;2549;52.128;21.068;2023-04-15T05:33:13;13.00;99.90
5061;DHT22;2549;52.128;21.068;2023-04-15T05:35:40;12.90;99.90
5061;DHT22;2549;52.128;21.068;2023-04-15T05:38:07;12.90;99.90
5061;DHT22;2549;52.128;21.068;2023-04-15T05:40:34;12.90;99.90
5061;DHT22;2549;52.128;21.068;2023-04-15T05:43:01;12.90;99.90
5061;DHT22;2549;52.128;21.068;2023-04-15T05:45:27;12.90;99.90
5061;DHT22;2549;52.128;21.068;2023-04-15T05:47:54;12.90;99.90
5061;DHT22;2549;52.128;21.068;2023-04-15T05:50:21;13.00;99.90
5061;DHT22;2549;52.128;21.068;2023-04-15T05:52:48;12.90;99.90
5061;DHT22;2549;52.128;21.068;2023-04-15T05:55:15;12.90;99.90
5061;DHT22;2549;52.128;21.068;2023-04-15T05:57:42;12.90;99.90
5061;DHT22;2549;52.128;21.068;2023-04-15T06:00:10;12.90;99.90
5061;DHT22;2549;52.128;21.068;2023-04-15T06:02:37;12.90;99.90
5061;DHT22;2549;52.128;21.068;2023-04-15T06:05:04;12.90;99.90
5061;DHT22;2549;52.128;21.068;2023-04-15T06:07:36;12.90;99.90
5061;DHT22;2549;52.128;21.068;2023-04-15T06:10:04;13.00;99.90
5061;DHT22;2549;52.128;21.068;2023-04-15T06:12:32;13.00;99.90
5061;DHT22;2549;52.128;21.068;2023-04-15T06:14:58;12.80;99.90
5061;DHT22;2549;52.128;21.068;2023-04-15T06:17:26;12.80;99.90
5061;DHT22;2549;52.128;21.068;2023-04-15T06:19:52;12.80;99.90
5061;DHT22;2549;52.128;21.068;2023-04-15T06:22:22;12.80;99.90
5061;DHT22;2549;52.128;21.068;2023-04-15T06:24:49;12.90;99.90
5061;DHT22;2549;52.128;21.068;2023-04-15T06:27:19;12.90;99.90
5061;DHT22;2549;52.128;21.068;2023-04-15T06:29:45;12.80;99.90
5061;DHT22;2549;52.128;21.068;2023-04-15T06:32:12;12.70;99.90
5061;DHT22;2549;52.128;21.068;2023-04-15T06:34:39;12.80;99.90
5061;DHT22;2549;52.128;21.068;2023-04-15T06:37:06;12.80;99.90
5061;DHT22;2549;52.128;21.068;2023-04-15T06:39:33;12.80;99.90
5061;DHT22;2549;52.128;21.068;2023-04-15T06:42:00;12.80;99.90
5061;DHT22;2549;52.128;21.068;2023-04-15T06:44:27;12.90;99.90
5061;DHT22;2549;52.128;21.068;2023-04-15T06:46:54;12.80;99.90
5061;DHT22;2549;52.128;21.068;2023-04-15T06:49:22;12.70;99.90
5061;DHT22;2549;52.128;21.068;2023-04-15T06:51:48;12.70;99.90
5061;DHT22;2549;52.128;21.068;2023-04-15T06:54:17;12.80;99.90
5061;DHT22;2549;52.128;21.068;2023-04-15T06:56:43;12.70;99.90
5061;DHT22;2549;52.128;21.068;2023-04-15T06:59:10;12.80;99.90
5061;DHT22;2549;52.128;21.068;2023-04-15T07:01:41;12.80;99.90
5061;DHT22;2549;52.128;21.068;2023-04-15T07:04:08;12.90;99.90
5061;DHT22;2549;52.128;21.068;2023-04-15T07:06:35;12.90;99.90
5061;DHT22;2549;52.128;21.068;2023-04-15T07:09:02;12.90;99.90
5061;DHT22;2549;52.128;21.068;2023-04-15T07:11:31;12.80;99.90
5061;DHT22;2549;52.128;21.068;2023-04-15T07:13:58;12.80;99.90
5061;DHT22;2549;52.128;21.068;2023-04-15T07:16:24;12.80;99.90
5061;DHT22;2549;52.128;21.068;2023-04-15T07:18:54;12.80;99.90
5061;DHT22;2549;52.128;21.068;2023-04-15T07:21:21;12.80;99.90
5061;DHT22;2549;52.128;21.068;2023-04-15T07:23:49;12.80;99.90
5061;DHT22;2549;52.128;21.068;2023-04-15T07:26:16;12.80;99.90
5061;DHT22;2549;52.128;21.068;2023-04-15T07:28:43;12.80;99.90
5061;DHT22;2549;52.128;21.068;2023-04-15T07:31:12;12.90;99.90
5061;DHT22;2549;52.128;21.068;2023-04-15T07:33:39;12.80;99.90
5061;DHT22;2549;52.128;21.068;2023-04-15T07:36:06;12.90;99.90
5061;DHT22;2549;52.128;21.068;2023-04-15T07:38:33;12.90;99.90
5061;DHT22;2549;52.128;21.068;2023-04-15T07:41:00;12.80;99.90
5061;DHT22;2549;52.128;21.068;2023-04-15T07:43:27;12.80;99.90
5061;DHT22;2549;52.128;21.068;2023-04-15T07:45:54;12.70;99.90
5061;DHT22;2549;52.128;21.068;2023-04-15T07:48:21;12.70;99.90
5061;DHT22;2549;52.128;21.068;2023-04-15T07:50:48;12.70;99.90
5061;DHT22;2549;52.128;21.068;2023-04-15T07:53:15;12.80;99.90
5061;DHT22;2549;52.128;21.068;2023-04-15T07:55:41;12.70;99.90
5061;DHT22;2549;52.128;21.068;2023-04-15T07:58:08;12.70;99.90
5061;DHT22;2549;52.128;21.068;2023-04-15T08:00:36;12.80;99.90
5061;DHT22;2549;52.128;21.068;2023-04-15T08:03:04;12.80;99.90
5061;DHT22;2549;52.128;21.068;2023-04-15T08:05:31;12.70;99.90
5061;DHT22;2549;52.128;21.068;2023-04-15T08:07:58;12.80;99.90
5061;DHT22;2549;52.128;21.068;2023-04-15T08:10:25;12.80;99.90
5061;DHT22;2549;52.128;21.068;2023-04-15T08:12:53;12.80;99.90
5061;DHT22;2549;52.128;21.068;2023-04-15T08:15:20;12.80;99.90
5061;DHT22;2549;52.128;21.068;2023-04-15T08:17:47;12.80;99.90
5061;DHT22;2549;52.128;21.068;2023-04-15T08:20:14;12.80;99.90
5061;DHT22;2549;52.128;21.068;2023-04-15T08:22:41;12.80;99.90
5061;DHT22;2549;52.128;21.068;2023-04-15T08:25:08;12.80;99.90
5061;DHT22;2549;52.128;21.068;2023-04-15T08:27:35;12.90;99.90
5061;DHT22;2549;52.128;21.068;2023-04-15T08:30:04;12.90;99.90
5061;DHT22;2549;52.128;21.068;2023-04-15T08:32:32;13.00;99.90
5061;DHT22;2549;52.128;21.068;2023-04-15T08:34:59;13.00;99.90
5061;DHT22;2549;52.128;21.068;2023-04-15T08:37:27;13.00;99.90
5061;DHT22;2549;52.128;21.068;2023-04-15T08:39:54;13.00;99.90
5061;DHT22;2549;52.128;21.068;2023-04-15T08:42:30;13.00;99.90
5061;DHT22;2549;52.128;21.068;2023-04-15T08:45:03;13.00;99.90
5061;DHT22;2549;52.128;21.068;2023-04-15T08:47:30;13.00;99.90
5061;DHT22;2549;52.128;21.068;2023-04-15T08:49:59;13.00;99.90
5061;DHT22;2549;52.128;21.068;2023-04-15T08:52:30;13.00;99.90
5061;DHT22;2549;52.128;21.068;2023-04-15T08:54:57;13.00;99.90
5061;DHT22;2549;52.128;21.068;2023-04-15T08:57:27;13.10;99.90
5061;DHT22;2549;52.128;21.068;2023-04-15T08:59:57;13.00;99.90
5061;DHT22;2549;52.128;21.068;2023-04-15T09:02:24;13.10;99.90
5061;DHT22;2549;52.128;21.068;2023-04-15T09:04:53;13.20;99.90
5061;DHT22;2549;52.128;21.068;2023-04-15T09:07:20;13.10;99.90
5061;DHT22;2549;52.128;21.068;2023-04-15T09:09:47;13.10;99.90
5061;DHT22;2549;52.128;21.068;2023-04-15T09:12:14;13.10;99.90
5061;DHT22;2549;52.128;21.068;2023-04-15T09:14:45;13.10;99.90
5061;DHT22;2549;52.128;21.068;2023-04-15T09:17:12;13.20;99.90
5061;DHT22;2549;52.128;21.068;2023-04-15T09:19:39;13.20;99.90
5061;DHT22;2549;52.128;21.068;2023-04-15T09:22:06;13.20;99.90
5061;DHT22;2549;52.128;21.068;2023-04-15T09:24:36;13.20;99.90
5061;DHT22;2549;52.128;21.068;2023-04-15T09:27:03;13.20;99.90
5061;DHT22;2549;52.128;21.068;2023-04-15T09:29:30;13.10;99.90
5061;DHT22;2549;52.128;21.068;2023-04-15T09:32:14;13.10;99.90
5061;DHT22;2549;52.128;21.068;2023-04-15T09:34:42;13.20;99.90
5061;DHT22;2549;52.128;21.068;2023-04-15T09:37:09;13.20;99.90
5061;DHT22;2549;52.128;21.068;2023-04-15T09:39:50;13.20;99.90
5061;DHT22;2549;52.128;21.068;2023-04-15T09:42:18;13.20;99.90
5061;DHT22;2549;52.128;21.068;2023-04-15T09:44:52;13.20;99.90
5061;DHT22;2549;52.128;21.068;2023-04-15T09:47:46;13.30;99.90
5061;DHT22;2549;52.128;21.068;2023-04-15T09:50:12;13.40;99.90
5061;DHT22;2549;52.128;21.068;2023-04-15T09:52:41;13.40;99.90
5061;DHT22;2549;52.128;21.068;2023-04-15T09:55:13;13.40;99.90
5061;DHT22;2549;52.128;21.068;2023-04-15T09:57:40;13.40;99.90
5061;DHT22;2549;52.128;21.068;2023-04-15T10:00:08;13.40;99.90
5061;DHT22;2549;52.128;21.068;2023-04-15T10:02:38;13.40;99.90
5061;DHT22;2549;52.128;21.068;2023-04-15T10:05:07;13.40;99.90
5061;DHT22;2549;52.128;21.068;2023-04-15T10:07:37;13.40;99.90
5061;DHT22;2549;52.128;21.068;2023-04-15T10:10:04;13.50;99.90
5061;DHT22;2549;52.128;21.068;2023-04-15T10:12:32;13.40;99.90
5061;DHT22;2549;52.128;21.068;2023-04-15T10:15:02;13.40;99.90
5061;DHT22;2549;52.128;21.068;2023-04-15T10:17:33;13.30;99.90
5061;DHT22;2549;52.128;21.068;2023-04-15T10:20:04;13.40;99.90
5061;DHT22;2549;52.128;21.068;2023-04-15T10:22:31;13.40;99.90
5061;DHT22;2549;52.128;21.068;2023-04-15T10:24:58;13.50;99.90
5061;DHT22;2549;52.128;21.068;2023-04-15T10:27:26;13.40;99.90
5061;DHT22;2549;52.128;21.068;2023-04-15T10:29:53;13.50;99.90
5061;DHT22;2549;52.128;21.068;2023-04-15T10:32:21;13.50;99.90
5061;DHT22;2549;52.128;21.068;2023-04-15T10:34:50;13.60;99.90
5061;DHT22;2549;52.128;21.068;2023-04-15T10:37:21;13.70;99.90
5061;DHT22;2549;52.128;21.068;2023-04-15T10:39:48;13.80;99.90
5061;DHT22;2549;52.128;21.068;2023-04-15T10:42:17;13.90;99.90
5061;DHT22;2549;52.128;21.068;2023-04-15T10:44:48;13.90;99.90
5061;DHT22;2549;52.128;21.068;2023-04-15T10:47:19;13.90;99.90
5061;DHT22;2549;52.128;21.068;2023-04-15T10:52:22;14.00;99.90
5061;DHT22;2549;52.128;21.068;2023-04-15T10:57:40;14.00;99.90
5061;DHT22;2549;52.128;21.068;2023-04-15T11:05:07;14.20;99.90
5061;DHT22;2549;52.128;21.068;2023-04-15T11:07:47;14.10;99.90
5061;DHT22;2549;52.128;21.068;2023-04-15T11:12:57;14.20;99.90
5061;DHT22;2549;52.128;21.068;2023-04-15T11:15:38;14.20;99.90
5061;DHT22;2549;52.128;21.068;2023-04-15T11:18:21;14.30;99.90
5061;DHT22;2549;52.128;21.068;2023-04-15T11:20:49;14.30;99.90
5061;DHT22;2549;52.128;21.068;2023-04-15T11:26:00;14.40;99.90
5061;DHT22;2549;52.128;21.068;2023-04-15T11:28:29;14.40;99.90
5061;DHT22;2549;52.128;21.068;2023-04-15T11:30:57;14.50;99.90
5061;DHT22;2549;52.128;21.068;2023-04-15T11:33:24;14.50;99.90
5061;DHT22;2549;52.128;21.068;2023-04-15T11:35:52;14.50;99.90
5061;DHT22;2549;52.128;21.068;2023-04-15T11:38:22;14.50;99.90
5061;DHT22;2549;52.128;21.068;2023-04-15T11:40:49;14.50;99.90
5061;DHT22;2549;52.128;21.068;2023-04-15T11:43:21;14.50;99.90
5061;DHT22;2549;52.128;21.068;2023-04-15T11:45:59;14.60;99.90
5061;DHT22;2549;52.128;21.068;2023-04-15T11:48:32;14.60;99.90
5061;DHT22;2549;52.128;21.068;2023-04-15T11:51:03;14.50;99.90
5061;DHT22;2549;52.128;21.068;2023-04-15T11:53:50;14.60;99.90
5061;DHT22;2549;52.128;21.068;2023-04-15T11:56:19;14.70;99.90
5061;DHT22;2549;52.128;21.068;2023-04-15T11:58:47;14.60;99.90
5061;DHT22;2549;52.128;21.068;2023-04-15T12:01:16;14.60;99.90
5061;DHT22;2549;52.128;21.068;2023-04-15T12:03:46;14.60;99.90
5061;DHT22;2549;52.128;21.068;2023-04-15T12:16:42;14.70;99.90
5061;DHT22;2549;52.128;21.068;2023-04-15T12:19:18;14.70;99.90
5061;DHT22;2549;52.128;21.068;2023-04-15T12:21:46;14.70;99.90
5061;DHT22;2549;52.128;21.068;2023-04-15T12:24:13;14.60;99.90
5061;DHT22;2549;52.128;21.068;2023-04-15T12:26:45;14.70;99.90
5061;DHT22;2549;52.128;21.068;2023-04-15T12:29:14;14.60;99.90
5061;DHT22;2549;52.128;21.068;2023-04-15T12:31:56;14.60;99.90
5061;DHT22;2549;52.128;21.068;2023-04-15T12:34:30;14.60;99.90
5061;DHT22;2549;52.128;21.068;2023-04-15T12:36:59;14.70;99.90
5061;DHT22;2549;52.128;21.068;2023-04-15T12:39:28;14.70;99.90
5061;DHT22;2549;52.128;21.068;2023-04-15T12:41:57;14.70;99.90
5061;DHT22;2549;52.128;21.068;2023-04-15T12:44:25;14.70;99.90
5061;DHT22;2549;52.128;21.068;2023-04-15T12:46:52;14.70;99.90
5061;DHT22;2549;52.128;21.068;2023-04-15T12:49:21;14.70;99.90
5061;DHT22;2549;52.128;21.068;2023-04-15T12:51:49;14.80;99.90
5061;DHT22;2549;52.128;21.068;2023-04-15T12:54:17;14.80;99.90
5061;DHT22;2549;52.128;21.068;2023-04-15T12:56:45;14.90;99.90
5061;DHT22;2549;52.128;21.068;2023-04-15T12:59:12;14.90;99.90
5061;DHT22;2549;52.128;21.068;2023-04-15T13:01:39;14.80;99.90
5061;DHT22;2549;52.128;21.068;2023-04-15T13:04:07;14.80;99.90
5061;DHT22;2549;52.128;21.068;2023-04-15T13:06:34;14.90;99.90
5061;DHT22;2549;52.128;21.068;2023-04-15T13:09:02;14.80;99.90
5061;DHT22;2549;52.128;21.068;2023-04-15T13:11:31;14.90;99.90
5061;DHT22;2549;52.128;21.068;2023-04-15T13:14:00;14.90;99.90
5061;DHT22;2549;52.128;21.068;2023-04-15T13:16:29;14.90;99.90
5061;DHT22;2549;52.128;21.068;2023-04-15T13:18:57;14.90;99.90
5061;DHT22;2549;52.128;21.068;2023-04-15T13:21:24;14.80;99.90
5061;DHT22;2549;52.128;21.068;2023-04-15T13:23:51;14.70;99.90
5061;DHT22;2549;52.128;21.068;2023-04-15T13:26:18;14.70;99.90
5061;DHT22;2549;52.128;21.068;2023-04-15T13:28:45;14.80;99.90
5061;DHT22;2549;52.128;21.068;2023-04-15T13:31:12;14.80;99.90
5061;DHT22;2549;52.128;21.068;2023-04-15T13:33:39;14.80;99.90
5061;DHT22;2549;52.128;21.068;2023-04-15T13:36:06;14.90;99.90
5061;DHT22;2549;52.128;21.068;2023-04-15T13:38:33;14.90;99.90
5061;DHT22;2549;52.128;21.068;2023-04-15T13:41:01;14.90;99.90
5061;DHT22;2549;52.128;21.068;2023-04-15T13:43:27;14.90;99.90
5061;DHT22;2549;52.128;21.068;2023-04-15T13:45:55;14.90;99.90
5061;DHT22;2549;52.128;21.068;2023-04-15T13:48:22;15.00;99.90
5061;DHT22;2549;52.128;21.068;2023-04-15T13:50:52;15.00;99.90
5061;DHT22;2549;52.128;21.068;2023-04-15T13:53:19;14.80;99.90
5061;DHT22;2549;52.128;21.068;2023-04-15T13:56:06;14.80;99.90
5061;DHT22;2549;52.128;21.068;2023-04-15T13:58:33;14.90;99.90
5061;DHT22;2549;52.128;21.068;2023-04-15T14:01:00;14.90;99.90
5061;DHT22;2549;52.128;21.068;2023-04-15T14:03:29;14.70;99.90
5061;DHT22;2549;52.128;21.068;2023-04-15T14:05:56;14.80;99.90
5061;DHT22;2549;52.128;21.068;2023-04-15T14:08:24;14.80;99.90
5061;DHT22;2549;52.128;21.068;2023-04-15T14:10:51;14.70;99.90
5061;DHT22;2549;52.128;21.068;2023-04-15T14:13:18;14.60;99.90
5061;DHT22;2549;52.128;21.068;2023-04-15T14:15:45;14.50;99.90
5061;DHT22;2549;52.128;21.068;2023-04-15T14:18:12;14.60;99.90
5061;DHT22;2549;52.128;21.068;2023-04-15T14:20:39;14.60;99.90
5061;DHT22;2549;52.128;21.068;2023-04-15T14:23:06;14.50;99.90
5061;DHT22;2549;52.128;21.068;2023-04-15T14:25:33;14.50;99.90
5061;DHT22;2549;52.128;21.068;2023-04-15T14:28:00;14.60;99.90
5061;DHT22;2549;52.128;21.068;2023-04-15T14:30:27;14.60;99.90
5061;DHT22;2549;52.128;21.068;2023-04-15T14:32:54;14.60;99.90
5061;DHT22;2549;52.128;21.068;2023-04-15T14:35:21;14.70;99.90
5061;DHT22;2549;52.128;21.068;2023-04-15T14:37:50;14.80;99.90
5061;DHT22;2549;52.128;21.068;2023-04-15T14:40:17;14.90;99.90
5061;DHT22;2549;52.128;21.068;2023-04-15T14:42:45;14.80;99.90
5061;DHT22;2549;52.128;21.068;2023-04-15T14:45:12;14.90;99.90
5061;DHT22;2549;52.128;21.068;2023-04-15T14:47:38;15.10;99.90
5061;DHT22;2549;52.128;21.068;2023-04-15T14:50:06;15.10;99.90
5061;DHT22;2549;52.128;21.068;2023-04-15T14:52:33;15.10;99.90
5061;DHT22;2549;52.128;21.068;2023-04-15T14:55:08;15.10;99.90
5061;DHT22;2549;52.128;21.068;2023-04-15T14:57:40;15.10;99.90
5061;DHT22;2549;52.128;21.068;2023-04-15T15:00:08;15.00;99.90
5061;DHT22;2549;52.128;21.068;2023-04-15T15:02:37;14.80;99.90
5061;DHT22;2549;52.128;21.068;2023-04-15T15:05:06;14.90;99.90
5061;DHT22;2549;52.128;21.068;2023-04-15T15:07:34;14.90;99.90
5061;DHT22;2549;52.128;21.068;2023-04-15T15:10:03;14.90;99.90
5061;DHT22;2549;52.128;21.068;2023-04-15T15:12:30;15.00;99.90
5061;DHT22;2549;52.128;21.068;2023-04-15T15:14:58;15.00;99.90
5061;DHT22;2549;52.128;21.068;2023-04-15T15:17:24;14.90;99.90
5061;DHT22;2549;52.128;21.068;2023-04-15T15:19:51;14.80;99.90
5061;DHT22;2549;52.128;21.068;2023-04-15T15:22:18;14.90;99.90
5061;DHT22;2549;52.128;21.068;2023-04-15T15:24:47;15.00;99.90
5061;DHT22;2549;52.128;21.068;2023-04-15T15:27:14;15.10;99.90
5061;DHT22;2549;52.128;21.068;2023-04-15T15:29:41;15.10;99.90
5061;DHT22;2549;52.128;21.068;2023-04-15T15:32:08;15.10;99.90
5061;DHT22;2549;52.128;21.068;2023-04-15T15:34:34;15.00;99.90
5061;DHT22;2549;52.128;21.068;2023-04-15T15:37:01;14.80;99.90
5061;DHT22;2549;52.128;21.068;2023-04-15T15:39:28;14.70;99.90
5061;DHT22;2549;52.128;21.068;2023-04-15T15:41:55;14.70;99.90
5061;DHT22;2549;52.128;21.068;2023-04-15T15:44:22;14.50;99.90
5061;DHT22;2549;52.128;21.068;2023-04-15T15:46:49;14.40;99.90
5061;DHT22;2549;52.128;21.068;2023-04-15T15:49:16;14.40;99.90
5061;DHT22;2549;52.128;21.068;2023-04-15T15:51:43;14.40;99.90
5061;DHT22;2549;52.128;21.068;2023-04-15T15:54:11;14.40;99.90
5061;DHT22;2549;52.128;21.068;2023-04-15T15:56:38;14.30;99.90
5061;DHT22;2549;52.128;21.068;2023-04-15T15:59:05;14.40;99.90
5061;DHT22;2549;52.128;21.068;2023-04-15T16:01:32;14.30;99.90
5061;DHT22;2549;52.128;21.068;2023-04-15T16:03:59;14.30;99.90
5061;DHT22;2549;52.128;21.068;2023-04-15T16:06:27;14.20;99.90
5061;DHT22;2549;52.128;21.068;2023-04-15T16:08:54;14.20;99.90
5061;DHT22;2549;52.128;21.068;2023-04-15T16:11:22;14.10;99.90
5061;DHT22;2549;52.128;21.068;2023-04-15T16:13:49;14.20;99.90
5061;DHT22;2549;52.128;21.068;2023-04-15T16:16:15;14.20;99.90